Time;durP1;ratioP1;P1;durP2;ratioP2;P2;SDS_P1;SDS_P2;PMS_P1;PMS_P2;Temp;Humidity;BMP_temperature;BMP_pressure;BME280_temperature;BME280_humidity;BME280_pressure;Samples;Min_cycle;Max_cycle;Signal;HPM_P1;HPM_P2
2022/07/02 00:01:49;;;;;;;27.35;12.57;;;;;;;15.12;76.81;101818.38;4982708;28;20034;-71
2022/07/02 00:04:25;;;;;;;16.85;12.00;;;;;;;15.09;77.01;101818.72;4999253;28;20017;-70
2022/07/02 00:06:51;;;;;;;19.63;12.77;;;;;;;14.85;78.74;101814.88;4986534;28;20026;-70
2022/07/02 00:09:17;;;;;;;24.38;13.65;;;;;;;14.86;78.19;101808.38;4988446;28;20030;-70
2022/07/02 00:11:42;;;;;;;22.38;13.48;;;;;;;14.59;80.01;101805.88;4972700;28;20022;-71
2022/07/02 00:14:08;;;;;;;15.90;11.35;;;;;;;14.81;77.44;101801.75;4977653;28;20022;-71
2022/07/02 00:16:35;;;;;;;20.33;12.40;;;;;;;14.85;77.11;101806.69;4978011;28;20030;-70
2022/07/02 00:19:01;;;;;;;20.75;13.60;;;;;;;14.71;77.81;101804.59;4987312;28;20026;-70
2022/07/02 00:21:26;;;;;;;32.33;14.20;;;;;;;14.77;77.76;101809.38;4986218;28;20092;-71
2022/07/02 00:23:51;;;;;;;24.98;12.27;;;;;;;14.60;77.96;101818.47;4972209;28;20026;-70
2022/07/02 00:26:28;;;;;;;19.52;13.25;;;;;;;14.60;77.75;101813.03;4984157;28;20030;-73
2022/07/02 00:29:01;;;;;;;28.23;12.80;;;;;;;14.40;78.19;101807.75;4979787;28;20084;-70
2022/07/02 00:31:27;;;;;;;20.38;11.98;;;;;;;14.54;77.59;101813.66;4976753;28;20394;-71
2022/07/02 00:33:53;;;;;;;17.85;10.45;;;;;;;14.39;77.48;101805.22;4986998;28;20034;-70
2022/07/02 00:36:22;;;;;;;18.67;11.57;;;;;;;14.30;78.24;101809.75;4977371;28;20014;-70
2022/07/02 00:38:51;;;;;;;19.17;13.38;;;;;;;14.44;78.29;101807.47;4975266;28;20034;-71
2022/07/02 00:41:20;;;;;;;26.90;13.57;;;;;;;14.45;78.18;101803.72;4976486;28;20113;-70
2022/07/02 00:43:46;;;;;;;15.95;11.60;;;;;;;14.45;77.43;101806.44;4979791;28;20022;-71
2022/07/02 00:46:13;;;;;;;19.33;11.88;;;;;;;14.48;76.93;101803.44;4982681;28;20022;-71
2022/07/02 00:48:39;;;;;;;17.80;11.52;;;;;;;14.41;76.55;101808.66;4979042;28;20030;-70
2022/07/02 00:51:04;;;;;;;20.73;13.80;;;;;;;14.29;77.83;101810.78;4975020;28;20026;-70
2022/07/02 00:53:30;;;;;;;19.00;13.63;;;;;;;14.24;77.90;101807.66;4980113;28;20022;-71
2022/07/02 00:55:56;;;;;;;24.27;14.00;;;;;;;14.02;79.88;101802.75;4977113;28;20018;-70
2022/07/02 00:58:22;;;;;;;22.90;14.77;;;;;;;13.90;80.02;101806.72;4991395;28;20041;-70
2022/07/02 01:00:48;;;;;;;22.10;14.00;;;;;;;14.00;80.66;101807.47;4980066;28;20026;-72
2022/07/02 01:03:20;;;;;;;24.45;14.55;;;;;;;14.05;81.34;101807.88;4990551;28;20577;-70
2022/07/02 01:05:48;;;;;;;27.88;14.15;;;;;;;13.89;80.52;101802.28;4984202;28;20105;-71
2022/07/02 01:11:01;;;;;;;25.35;15.32;;;;;;;13.95;81.25;101807.94;4987286;28;20036;-70
2022/07/02 01:13:31;;;;;;;26.83;14.35;;;;;;;14.00;80.68;101815.66;4986588;28;20112;-70
2022/07/02 01:15:57;;;;;;;24.08;16.52;;;;;;;13.79;82.26;101807.81;4985878;28;20176;-70
2022/07/02 01:18:22;;;;;;;29.67;15.60;;;;;;;13.91;81.41;101813.88;4985692;28;20112;-72
2022/07/02 01:20:47;;;;;;;24.67;15.48;;;;;;;14.07;80.29;101816.72;4991446;28;20141;-70
2022/07/02 01:23:13;;;;;;;25.95;15.85;;;;;;;14.09;79.94;101820.16;4984245;28;20042;-73
2022/07/02 01:25:38;;;;;;;27.33;15.60;;;;;;;13.98;80.34;101820.41;4994190;28;20132;-70
2022/07/02 01:28:04;;;;;;;27.27;11.95;;;;;;;14.00;79.70;101821.09;4981523;28;20165;-70
2022/07/02 01:30:29;;;;;;;22.27;15.68;;;;;;;13.98;80.27;101820.41;4978884;28;20033;-70
2022/07/02 01:32:55;;;;;;;28.50;15.23;;;;;;;13.88;80.68;101815.03;4986546;28;20068;-70
2022/07/02 01:35:20;;;;;;;22.92;13.35;;;;;;;13.90;79.91;101814.91;4989855;28;20040;-71
2022/07/02 01:37:46;;;;;;;29.85;14.55;;;;;;;13.94;79.40;101816.28;4970601;28;20030;-72
2022/07/02 01:40:11;;;;;;;24.85;13.65;;;;;;;13.83;80.22;101814.66;4986070;28;20018;-70
2022/07/02 01:42:37;;;;;;;27.25;14.73;;;;;;;13.90;79.49;101820.34;4975269;28;20092;-70
2022/07/02 01:45:04;;;;;;;25.27;13.45;;;;;;;13.92;79.08;101818.31;4981945;28;20050;-70
2022/07/02 01:47:29;;;;;;;27.17;14.80;;;;;;;13.82;79.70;101819.25;4989277;28;20031;-70
2022/07/02 01:49:55;;;;;;;23.23;13.25;;;;;;;13.87;79.95;101821.50;4974829;28;20027;-70
2022/07/02 01:52:20;;;;;;;24.02;13.55;;;;;;;13.91;78.95;101822.91;4977273;28;20026;-70
2022/07/02 01:54:46;;;;;;;23.88;14.27;;;;;;;13.61;80.60;101826.84;4984239;28;20033;-70
2022/07/02 01:57:13;;;;;;;29.55;18.67;;;;;;;13.46;82.35;101834.69;4982458;28;20041;-72
2022/07/02 01:59:38;;;;;;;28.83;18.42;;;;;;;13.55;81.59;101838.34;4994554;28;20061;-72
2022/07/02 02:02:04;;;;;;;29.15;17.73;;;;;;;13.70;81.94;101836.84;4993664;28;20085;-73
2022/07/02 02:04:30;;;;;;;32.85;16.13;;;;;;;13.75;81.94;101839.91;4993351;28;20030;-72
2022/07/02 02:06:55;;;;;;;25.75;15.18;;;;;;;13.69;81.85;101846.00;4994177;28;20023;-72
2022/07/02 02:09:21;;;;;;;33.92;17.38;;;;;;;13.60;82.03;101841.47;4983817;28;20057;-72
2022/07/02 02:11:46;;;;;;;24.42;16.35;;;;;;;13.37;83.08;101851.09;4979833;28;20104;-72
2022/07/02 02:14:12;;;;;;;41.47;17.00;;;;;;;13.31;83.28;101849.84;4980050;28;20096;-73
2022/07/02 02:16:37;;;;;;;28.50;15.85;;;;;;;13.54;82.07;101853.84;4980926;28;20049;-72
2022/07/02 02:19:04;;;;;;;27.92;17.15;;;;;;;13.37;82.94;101856.53;4982150;28;20081;-70
2022/07/02 02:21:29;;;;;;;36.65;19.30;;;;;;;13.54;82.90;101859.28;4982486;28;20030;-73
2022/07/02 02:23:56;;;;;;;31.98;19.50;;;;;;;13.59;82.21;101853.38;4972128;28;20036;-72
2022/07/02 02:26:21;;;;;;;21.20;14.70;;;;;;;13.51;82.18;101853.31;4985158;28;20048;-72
2022/07/02 02:28:47;;;;;;;29.55;18.00;;;;;;;13.64;80.92;101858.38;4982374;28;20030;-72
2022/07/02 02:31:12;;;;;;;24.23;14.45;;;;;;;13.74;79.70;101870.03;4993445;28;20045;-72
2022/07/02 02:33:38;;;;;;;25.20;15.95;;;;;;;13.73;79.52;101869.16;4985960;28;20038;-70
2022/07/02 02:36:04;;;;;;;23.77;14.85;;;;;;;13.66;79.88;101878.97;4973229;28;20025;-70
2022/07/02 02:38:29;;;;;;;37.75;15.77;;;;;;;13.63;79.83;101879.28;4972102;28;20065;-70
2022/07/02 02:40:55;;;;;;;28.35;14.13;;;;;;;13.59;79.88;101872.44;4973932;28;20081;-70
2022/07/02 02:43:20;;;;;;;33.28;16.13;;;;;;;13.66;79.81;101876.25;4972369;28;20459;-70
2022/07/02 02:45:46;;;;;;;23.30;13.45;;;;;;;13.59;80.08;101872.44;4974579;28;20018;-70
2022/07/02 02:48:11;;;;;;;31.58;13.57;;;;;;;13.50;79.85;101867.91;4970092;28;20030;-70
2022/07/02 02:50:36;;;;;;;24.05;13.30;;;;;;;13.46;79.78;101874.66;4972087;28;20037;-71
2022/07/02 02:53:02;;;;;;;22.08;13.15;;;;;;;13.51;79.92;101875.06;4974027;28;20019;-70
2022/07/02 02:55:29;;;;;;;22.13;13.63;;;;;;;13.46;79.23;101882.81;4977637;28;20017;-74
2022/07/02 02:57:54;;;;;;;23.00;12.35;;;;;;;13.51;79.04;101880.50;4988649;28;20050;-71
2022/07/02 03:00:20;;;;;;;23.10;13.50;;;;;;;13.54;78.72;101885.63;4972536;28;20094;-70
2022/07/02 03:02:45;;;;;;;24.27;14.25;;;;;;;13.56;78.56;101881.75;4966615;28;20023;-70
2022/07/02 03:05:10;;;;;;;25.13;15.80;;;;;;;13.49;78.40;101893.38;4986878;28;20030;-71
2022/07/02 03:07:36;;;;;;;19.67;14.13;;;;;;;13.47;78.99;101890.81;4985052;28;20038;-70
2022/07/02 03:10:01;;;;;;;34.53;15.77;;;;;;;13.19;81.27;101889.94;4983617;28;20029;-70
2022/07/02 03:12:27;;;;;;;27.50;16.02;;;;;;;13.38;80.41;101890.91;4989430;28;20068;-70
2022/07/02 03:14:52;;;;;;;21.20;14.50;;;;;;;13.16;81.23;101903.84;4999975;28;20037;-70
2022/07/02 03:17:17;;;;;;;26.20;13.98;;;;;;;13.24;81.05;101901.28;4985050;28;20118;-70
2022/07/02 03:19:44;;;;;;;28.33;14.52;;;;;;;13.20;80.97;101910.72;4993659;28;20052;-70
2022/07/02 03:22:09;;;;;;;24.27;15.13;;;;;;;13.22;81.09;101908.72;4997786;28;20044;-71
2022/07/02 03:24:34;;;;;;;28.65;16.67;;;;;;;13.40;81.30;101910.63;4978711;28;20108;-70
2022/07/02 03:27:00;;;;;;;25.85;15.75;;;;;;;13.35;81.33;101912.94;4981240;28;20022;-70
2022/07/02 03:29:25;;;;;;;29.30;16.70;;;;;;;13.34;81.32;101911.25;4985698;28;20034;-70
2022/07/02 03:31:50;;;;;;;32.80;19.33;;;;;;;12.95;83.12;101911.38;4992235;28;20453;-71
2022/07/02 03:34:16;;;;;;;28.10;16.90;;;;;;;12.86;84.14;101925.84;4987957;28;20034;-71
2022/07/02 03:36:41;;;;;;;28.10;17.50;;;;;;;12.99;83.84;101918.22;4984345;28;20026;-71
2022/07/02 03:39:06;;;;;;;29.15;16.50;;;;;;;12.99;83.95;101923.66;4978298;28;20525;-71
2022/07/02 03:41:32;;;;;;;26.95;17.65;;;;;;;13.06;83.65;101923.94;4981514;28;20065;-71
2022/07/02 03:43:57;;;;;;;31.45;16.85;;;;;;;13.13;83.77;101934.06;4979126;28;20034;-71
2022/07/02 03:46:23;;;;;;;33.38;17.48;;;;;;;13.20;83.53;101929.78;4996756;28;20030;-71
2022/07/02 03:48:49;;;;;;;29.10;16.52;;;;;;;13.15;83.73;101926.59;5001229;28;20021;-71
2022/07/02 03:51:15;;;;;;;23.80;16.33;;;;;;;13.15;83.72;101929.31;4969430;28;20088;-71
2022/07/02 03:53:41;;;;;;;32.20;19.13;;;;;;;13.24;83.13;101916.75;4982975;28;20027;-71
2022/07/02 03:56:06;;;;;;;35.80;19.35;;;;;;;13.34;83.15;101916.69;4990921;28;20033;-71
2022/07/02 03:58:31;;;;;;;26.17;13.85;;;;;;;13.43;82.73;101915.75;4979433;28;20041;-71
2022/07/02 04:00:57;;;;;;;27.40;15.27;;;;;;;13.51;82.24;101918.59;4996953;28;20025;-71
2022/07/02 04:03:23;;;;;;;21.90;13.93;;;;;;;13.57;82.03;101923.44;4977910;28;20084;-71
2022/07/02 04:05:48;;;;;;;24.30;13.85;;;;;;;13.66;81.94;101919.78;4997118;28;20061;-71
2022/07/02 04:08:14;;;;;;;29.63;12.30;;;;;;;13.68;81.75;101931.38;4999376;28;20033;-70
2022/07/02 04:10:39;;;;;;;20.73;11.82;;;;;;;13.69;81.80;101926.78;4994658;28;20038;-71
2022/07/02 04:13:05;;;;;;;27.92;12.98;;;;;;;13.63;82.31;101933.72;4994034;28;20034;-73
2022/07/02 04:15:30;;;;;;;21.02;11.50;;;;;;;13.72;81.69;101929.22;4984558;28;20061;-71
2022/07/02 04:17:55;;;;;;;27.95;13.80;;;;;;;13.67;82.33;101928.81;4982546;28;20506;-71
2022/07/02 04:20:21;;;;;;;21.05;12.32;;;;;;;13.77;81.79;101935.91;5004022;28;20025;-71
2022/07/02 04:22:46;;;;;;;23.48;14.75;;;;;;;13.75;82.39;101937.06;4999441;28;20435;-72
2022/07/02 04:25:11;;;;;;;22.77;11.77;;;;;;;13.73;81.90;101939.09;4980395;28;20022;-70
2022/07/02 04:27:37;;;;;;;22.23;11.45;;;;;;;13.79;82.40;101933.03;4998261;28;20055;-71
2022/07/02 04:30:02;;;;;;;19.05;12.07;;;;;;;13.95;81.61;101935.06;4979467;28;20027;-71
2022/07/02 04:32:28;;;;;;;27.52;11.40;;;;;;;13.90;81.56;101941.00;4978287;28;20022;-73
2022/07/02 04:34:53;;;;;;;24.02;11.50;;;;;;;14.12;81.14;101940.53;4981024;28;20030;-71
2022/07/02 04:37:19;;;;;;;18.70;11.35;;;;;;;14.16;80.68;101941.09;4984226;28;20538;-71
2022/07/02 04:39:44;;;;;;;18.90;9.77;;;;;;;14.20;80.43;101942.47;4976852;28;20038;-71
2022/07/02 04:42:09;;;;;;;19.10;10.85;;;;;;;14.28;80.53;101945.28;4996955;28;20052;-71
2022/07/02 04:44:35;;;;;;;21.35;9.60;;;;;;;14.57;79.07;101945.03;4993766;28;20032;-71
2022/07/02 04:47:00;;;;;;;23.10;9.15;;;;;;;14.49;78.11;101942.25;4983685;28;20030;-71
2022/07/02 04:49:26;;;;;;;19.40;8.45;;;;;;;14.62;78.00;101947.31;5000795;28;20049;-73
2022/07/02 04:51:51;;;;;;;15.70;8.35;;;;;;;14.64;78.39;101948.00;4996519;28;20026;-71
2022/07/02 04:54:17;;;;;;;24.13;10.25;;;;;;;14.69;77.59;101953.84;4981318;28;20029;-71
2022/07/02 04:56:42;;;;;;;20.63;8.60;;;;;;;14.75;77.96;101952.34;4981960;28;20440;-71
2022/07/02 04:59:07;;;;;;;16.58;8.30;;;;;;;14.86;77.18;101961.09;4994430;28;20027;-71
2022/07/02 05:01:33;;;;;;;22.10;8.88;;;;;;;14.91;77.12;101956.03;4990801;28;20046;-71
2022/07/02 05:03:58;;;;;;;22.63;9.35;;;;;;;14.93;77.13;101956.75;4980684;28;20109;-72
2022/07/02 05:06:23;;;;;;;11.98;7.90;;;;;;;14.97;76.67;101967.31;5002145;28;20041;-71
2022/07/02 05:08:51;;;;;;;19.92;8.63;;;;;;;14.97;77.15;101961.88;4986707;28;20053;-73
2022/07/02 05:11:19;;;;;;;23.00;9.23;;;;;;;15.03;77.42;101966.69;4991974;28;20475;-72
2022/07/02 05:13:47;;;;;;;10.70;8.38;;;;;;;15.06;77.00;101977.25;4979896;28;20022;-72
2022/07/02 05:16:12;;;;;;;19.92;8.73;;;;;;;15.12;76.50;101988.38;4995617;28;20077;-72
2022/07/02 05:18:38;;;;;;;21.77;8.38;;;;;;;14.93;76.75;101974.94;4978507;28;20058;-72
2022/07/02 05:21:04;;;;;;;20.38;8.55;;;;;;;15.30;75.74;101980.13;4985164;28;20064;-72
2022/07/02 05:23:29;;;;;;;14.15;7.68;;;;;;;15.34;74.95;101976.06;4992178;28;20030;-72
2022/07/02 05:25:55;;;;;;;15.32;7.97;;;;;;;15.48;75.62;101977.34;4983611;28;20145;-72
2022/07/02 05:28:20;;;;;;;13.60;7.03;;;;;;;15.60;75.19;101980.63;4995008;28;20029;-72
2022/07/02 05:30:46;;;;;;;16.92;6.90;;;;;;;15.60;74.79;101986.09;4977034;28;20029;-72
2022/07/02 05:33:11;;;;;;;19.02;7.57;;;;;;;15.63;75.19;101991.25;4993350;28;20433;-72
2022/07/02 05:35:36;;;;;;;13.00;7.68;;;;;;;15.72;74.93;101985.66;4983212;28;20026;-72
2022/07/02 05:38:02;;;;;;;13.52;7.68;;;;;;;15.85;74.70;101985.19;4978143;28;20034;-72
2022/07/02 05:40:27;;;;;;;16.25;6.88;;;;;;;16.07;73.75;101988.31;4978505;28;20061;-72
2022/07/02 05:42:52;;;;;;;20.85;7.70;;;;;;;16.09;72.85;101997.22;4974961;28;20038;-72
2022/07/02 05:45:18;;;;;;;25.08;7.05;;;;;;;16.08;72.77;101992.75;4978868;28;20229;-72
2022/07/02 05:47:43;;;;;;;24.23;6.43;;;;;;;16.32;71.11;101998.28;4978037;28;20057;-72
2022/07/02 05:50:09;;;;;;;13.60;5.93;;;;;;;16.41;71.17;101986.31;4981895;28;20112;-72
2022/07/02 05:52:34;;;;;;;8.85;4.85;;;;;;;16.74;68.59;101997.31;4999135;28;20129;-72
2022/07/02 05:54:59;;;;;;;14.57;5.68;;;;;;;16.57;70.08;101995.59;4998082;28;20026;-72
2022/07/02 05:57:25;;;;;;;15.10;5.93;;;;;;;16.62;69.70;102010.44;4980792;28;20029;-72
2022/07/02 05:59:50;;;;;;;14.55;5.30;;;;;;;16.71;70.00;101992.19;4977961;28;20026;-72
2022/07/02 06:02:15;;;;;;;18.83;5.93;;;;;;;16.80;69.65;101996.63;4986295;28;20022;-72
2022/07/02 06:04:41;;;;;;;18.15;5.65;;;;;;;16.80;69.39;102002.94;4986327;28;20382;-72
2022/07/02 06:09:50;;;;;;;9.90;4.80;;;;;;;17.20;68.36;102014.03;4993352;28;20050;-72
2022/07/02 06:12:15;;;;;;;17.35;5.13;;;;;;;16.96;67.45;102013.03;4990691;28;20065;-72
2022/07/02 06:14:40;;;;;;;15.75;6.85;;;;;;;17.02;68.10;102011.50;4979738;28;20056;-72
2022/07/02 06:17:06;;;;;;;10.57;4.90;;;;;;;17.29;67.08;102023.94;4975381;28;20023;-72
2022/07/02 06:19:31;;;;;;;9.43;4.00;;;;;;;17.37;67.10;102021.19;4974210;28;20019;-72
2022/07/02 06:21:57;;;;;;;17.52;5.10;;;;;;;17.21;65.93;102021.19;4987765;28;20015;-72
2022/07/02 06:24:22;;;;;;;9.93;3.95;;;;;;;17.26;66.66;102027.88;4993472;28;20026;-72
2022/07/02 06:26:47;;;;;;;13.00;4.13;;;;;;;17.60;63.29;102027.63;4991619;28;20018;-72
2022/07/02 06:29:12;;;;;;;9.32;3.80;;;;;;;17.76;63.56;102034.09;4993515;28;20123;-72
2022/07/02 06:31:38;;;;;;;9.45;3.40;;;;;;;17.48;63.54;102023.56;4978600;28;20034;-72
2022/07/02 06:34:04;;;;;;;13.93;3.05;;;;;;;17.73;62.98;102043.50;4989029;28;20019;-72
2022/07/02 06:36:30;;;;;;;13.50;3.15;;;;;;;17.90;62.65;102033.34;4977245;28;20018;-72
2022/07/02 06:38:56;;;;;;;12.35;3.28;;;;;;;17.98;62.69;102041.53;4973703;28;20053;-72
2022/07/02 06:44:06;;;;;;;12.63;3.47;;;;;;;18.16;60.44;102044.88;4990358;28;20018;-72
2022/07/02 06:46:32;;;;;;;14.55;3.10;;;;;;;18.08;60.73;102042.19;4973310;28;20025;-72
2022/07/02 06:48:57;;;;;;;5.53;2.42;;;;;;;18.27;59.96;102046.38;4977954;28;20024;-72
2022/07/02 06:51:22;;;;;;;8.80;2.42;;;;;;;18.44;58.25;102044.34;4976906;28;20054;-72
2022/07/02 06:53:48;;;;;;;7.47;1.95;;;;;;;18.68;57.29;102038.75;4987014;28;20026;-72
2022/07/02 06:56:13;;;;;;;9.23;2.35;;;;;;;18.55;56.51;102037.63;4996880;28;20049;-72
2022/07/02 06:58:38;;;;;;;8.23;2.55;;;;;;;18.41;56.04;102047.47;4992182;28;20501;-72
2022/07/02 07:01:04;;;;;;;9.27;2.13;;;;;;;18.43;56.02;102048.13;4996107;28;20014;-72
2022/07/02 07:03:29;;;;;;;6.43;1.80;;;;;;;18.58;54.58;102049.09;4974288;28;20026;-72
2022/07/02 07:05:54;;;;;;;20.13;2.25;;;;;;;18.80;51.97;102063.00;4984132;28;20227;-72
2022/07/02 07:08:20;;;;;;;5.93;1.70;;;;;;;18.68;51.71;102055.19;4975004;28;20079;-72
2022/07/02 07:10:45;;;;;;;8.70;1.77;;;;;;;18.91;51.99;102049.72;4974946;28;20046;-72
2022/07/02 07:13:11;;;;;;;15.77;2.35;;;;;;;19.01;51.65;102054.94;4974812;28;20025;-72
2022/07/02 07:15:36;;;;;;;10.80;1.70;;;;;;;18.92;49.95;102061.53;4977621;28;20061;-72
2022/07/02 07:18:02;;;;;;;9.07;1.42;;;;;;;18.80;50.30;102052.03;4994063;28;20037;-72
2022/07/02 07:20:29;;;;;;;6.85;1.92;;;;;;;18.96;50.54;102046.41;4995525;28;20081;-73
2022/07/02 07:22:55;;;;;;;7.95;1.58;;;;;;;19.06;51.09;102051.66;4981863;28;20026;-72
2022/07/02 07:25:21;;;;;;;9.60;2.25;;;;;;;19.44;50.46;102044.22;4974064;28;20033;-72
2022/07/02 07:27:47;;;;;;;10.73;2.08;;;;;;;19.59;50.29;102047.88;4983133;28;20109;-72
2022/07/02 07:30:13;;;;;;;9.68;1.80;;;;;;;19.25;51.08;102051.13;4984001;28;20026;-72
2022/07/02 07:32:38;;;;;;;11.23;1.80;;;;;;;19.31;49.57;102053.13;4993438;28;20030;-73
2022/07/02 07:35:04;;;;;;;10.00;1.85;;;;;;;19.31;50.09;102049.53;4982682;28;20394;-72
2022/07/02 07:37:35;;;;;;;8.07;2.17;;;;;;;19.64;49.17;102050.91;4982574;28;20073;-73
2022/07/02 07:40:01;;;;;;;7.57;2.03;;;;;;;19.40;49.43;102048.38;4991806;28;20080;-72
2022/07/02 07:42:27;;;;;;;4.72;1.60;;;;;;;19.61;49.06;102045.78;4974904;28;20077;-73
2022/07/02 07:44:53;;;;;;;8.43;1.73;;;;;;;19.76;48.97;102060.38;4986362;28;20069;-73
2022/07/02 07:47:18;;;;;;;14.15;1.83;;;;;;;19.48;48.72;102045.53;4969758;28;20033;-73
2022/07/02 07:49:43;;;;;;;5.40;1.70;;;;;;;20.04;49.03;102056.94;4982882;28;20023;-74
2022/07/02 07:52:09;;;;;;;10.13;2.00;;;;;;;20.13;48.32;102049.41;4980349;28;20053;-72
2022/07/02 07:54:34;;;;;;;18.05;2.53;;;;;;;20.49;47.64;102061.31;4981986;28;20034;-71
2022/07/02 07:56:59;;;;;;;9.50;1.90;;;;;;;20.44;48.36;102058.25;4982809;28;20034;-72
2022/07/02 07:59:25;;;;;;;7.35;1.90;;;;;;;20.33;47.81;102056.00;4972665;28;20022;-71
2022/07/02 08:01:50;;;;;;;11.60;2.20;;;;;;;20.43;47.47;102066.72;4971854;28;20032;-71
2022/07/02 08:04:16;;;;;;;12.35;2.03;;;;;;;20.23;48.32;102050.84;4976540;28;20026;-72
2022/07/02 08:06:42;;;;;;;12.35;2.50;;;;;;;20.79;47.12;102053.78;4973460;28;20023;-72
2022/07/02 08:09:07;;;;;;;10.05;2.10;;;;;;;20.62;47.71;102049.59;4983649;28;20341;-72
2022/07/02 08:11:33;;;;;;;7.63;1.88;;;;;;;20.34;47.84;102057.72;4971858;28;20029;-72
2022/07/02 08:13:58;;;;;;;20.15;2.35;;;;;;;20.55;47.84;102054.19;4983973;28;20056;-72
2022/07/02 08:16:24;;;;;;;5.88;1.60;;;;;;;20.67;47.28;102057.25;4993916;28;20033;-72
2022/07/02 08:18:49;;;;;;;5.63;1.80;;;;;;;20.70;46.32;102052.22;4983046;28;20030;-72
2022/07/02 08:21:15;;;;;;;10.40;1.92;;;;;;;20.86;46.13;102065.75;4975324;28;20161;-72
2022/07/02 08:23:40;;;;;;;8.02;2.05;;;;;;;20.85;46.70;102055.75;4969561;28;20030;-72
2022/07/02 08:26:05;;;;;;;8.52;2.03;;;;;;;21.36;46.08;102058.34;4971083;28;20039;-72
2022/07/02 08:28:31;;;;;;;8.85;1.80;;;;;;;20.71;46.72;102059.44;4975557;28;20045;-73
2022/07/02 08:30:56;;;;;;;6.25;1.45;;;;;;;21.26;44.88;102063.34;4946849;28;20032;-71
2022/07/02 08:33:22;;;;;;;9.73;1.52;;;;;;;21.58;45.33;102055.50;4970579;28;20028;-72
2022/07/02 08:35:47;;;;;;;7.25;1.67;;;;;;;21.71;44.96;102066.63;4977094;28;20022;-72
2022/07/02 08:38:12;;;;;;;9.43;1.80;;;;;;;21.28;44.82;102072.28;4992033;28;20114;-72
2022/07/02 08:40:42;;;;;;;6.80;1.67;;;;;;;20.83;46.12;102068.88;4984375;28;20030;-72
2022/07/02 08:43:10;;;;;;;7.65;1.55;;;;;;;21.19;44.47;102058.78;4974561;28;20014;-74
2022/07/02 08:45:36;;;;;;;9.40;1.40;;;;;;;21.05;44.04;102068.84;4970295;28;20118;-73
2022/07/02 08:48:05;;;;;;;6.43;1.52;;;;;;;20.77;44.28;102063.31;4967996;28;20030;-73
2022/07/02 08:50:31;;;;;;;5.00;1.17;;;;;;;21.58;44.38;102066.53;4977246;28;20030;-71
2022/07/02 08:52:56;;;;;;;5.38;1.30;;;;;;;21.23;43.04;102069.22;4987559;28;20049;-73
2022/07/02 08:55:22;;;;;;;7.32;1.27;;;;;;;21.32;43.01;102081.84;4982654;28;20402;-74
2022/07/02 08:57:49;;;;;;;8.65;1.63;;;;;;;21.31;43.09;102077.38;4970326;28;20041;-74
2022/07/02 09:00:15;;;;;;;10.32;1.50;;;;;;;21.63;42.42;102075.06;4982279;28;20046;-71
2022/07/02 09:02:43;;;;;;;8.70;1.30;;;;;;;21.76;42.46;102069.63;4970459;28;20031;-70
2022/07/02 09:05:09;;;;;;;7.32;1.27;;;;;;;21.62;41.39;102062.31;4974940;28;20033;-71
2022/07/02 09:07:35;;;;;;;5.07;1.60;;;;;;;21.53;41.98;102058.03;4973725;28;20161;-71
2022/07/02 09:10:01;;;;;;;8.52;1.45;;;;;;;21.73;41.67;102053.50;4970514;28;20026;-71
2022/07/02 09:12:28;;;;;;;8.07;1.60;;;;;;;22.05;41.45;102067.66;4987459;28;20062;-74
2022/07/02 09:14:53;;;;;;;5.07;1.75;;;;;;;21.59;41.35;102054.47;4971972;28;20022;-74
2022/07/02 09:17:18;;;;;;;5.25;1.48;;;;;;;21.82;40.87;102057.78;4982777;28;20017;-72
2022/07/02 09:19:44;;;;;;;7.00;1.40;;;;;;;21.35;39.59;102067.66;4982876;28;20022;-73
2022/07/02 09:22:09;;;;;;;2.70;1.15;;;;;;;21.20;41.25;102058.63;4987298;28;20049;-73
2022/07/02 09:24:42;;;;;;;4.35;1.20;;;;;;;21.71;39.65;102050.06;4987261;28;20062;-72
2022/07/02 09:27:10;;;;;;;3.00;1.13;;;;;;;22.78;39.33;102052.19;4996528;28;20030;-72
2022/07/02 09:29:47;;;;;;;9.05;2.00;;;;;;;22.25;40.03;102063.13;4969836;28;20496;-73
2022/07/02 09:32:14;;;;;;;5.57;1.50;;;;;;;22.54;38.53;102061.91;4959879;28;20117;-73
2022/07/02 09:34:45;;;;;;;7.47;1.75;;;;;;;22.48;39.68;102071.03;4975225;28;20014;-72
2022/07/02 09:37:21;;;;;;;10.68;1.30;;;;;;;22.27;39.35;102049.94;4965975;28;20022;-73
2022/07/02 09:39:48;;;;;;;9.68;1.65;;;;;;;22.00;40.55;102050.88;4976017;28;20041;-72
2022/07/02 09:42:34;;;;;;;7.85;1.42;;;;;;;22.48;39.99;102030.47;4960905;28;20450;-73
2022/07/02 09:45:05;;;;;;;2.63;1.20;;;;;;;22.52;39.69;102041.09;4967746;28;20049;-73
2022/07/02 09:47:37;;;;;;;6.82;1.10;;;;;;;22.56;37.95;102047.91;4976016;28;20066;-73
2022/07/02 09:50:12;;;;;;;2.00;0.95;;;;;;;22.80;37.99;102044.53;4981375;28;20048;-73
2022/07/02 09:52:52;;;;;;;5.22;1.15;;;;;;;23.13;36.88;102032.69;4970814;28;20054;-73
2022/07/02 09:55:29;;;;;;;8.20;1.65;;;;;;;22.51;37.65;102036.66;4974086;28;20030;-73
2022/07/02 09:58:00;;;;;;;3.75;1.00;;;;;;;22.56;37.78;102036.84;4984887;28;20038;-73
2022/07/02 10:00:30;;;;;;;6.55;1.35;;;;;;;22.50;37.12;102043.25;4976020;28;22930;-73
2022/07/02 10:02:57;;;;;;;6.15;1.20;;;;;;;22.54;38.56;102036.22;4980496;28;20017;-73
2022/07/02 10:05:28;;;;;;;5.15;1.50;;;;;;;22.24;38.32;102039.34;4970285;28;20026;-74
2022/07/02 10:07:56;;;;;;;6.47;1.60;;;;;;;22.97;37.79;102029.31;4965206;28;20038;-73
2022/07/02 10:10:38;;;;;;;2.05;1.05;;;;;;;22.83;36.59;102033.09;4981583;28;20018;-73
2022/07/02 10:13:09;;;;;;;8.88;1.23;;;;;;;22.60;36.22;102038.16;4987415;28;20034;-73
2022/07/02 10:15:42;;;;;;;4.00;1.50;;;;;;;22.85;35.53;102036.47;4969526;28;20022;-73
2022/07/02 10:18:08;;;;;;;6.40;1.10;;;;;;;22.93;37.21;102028.00;4967551;28;20026;-74
2022/07/02 10:20:34;;;;;;;5.35;1.52;;;;;;;23.42;35.84;102032.25;4977317;28;20024;-74
2022/07/02 10:23:02;;;;;;;3.75;1.15;;;;;;;23.32;35.36;102034.59;4984623;28;20030;-74
2022/07/02 10:25:29;;;;;;;2.45;1.05;;;;;;;23.68;35.41;102022.22;4964189;28;20026;-74
2022/07/02 10:27:55;;;;;;;5.00;1.17;;;;;;;23.33;36.99;102024.38;4974772;28;20033;-74
2022/07/02 10:30:25;;;;;;;9.13;1.20;;;;;;;22.96;36.81;102033.13;4967319;28;20010;-74
2022/07/02 10:32:50;;;;;;;3.20;1.05;;;;;;;23.56;35.49;102033.91;4967941;28;20096;-74
2022/07/02 10:35:16;;;;;;;8.30;1.38;;;;;;;23.58;35.32;102025.41;4970290;28;20026;-74
2022/07/02 10:37:44;;;;;;;9.75;1.50;;;;;;;23.54;35.93;102030.53;4969954;28;20026;-71
2022/07/02 10:40:16;;;;;;;12.02;1.67;;;;;;;23.23;36.82;102038.66;4972483;28;20022;-74
2022/07/02 10:42:45;;;;;;;6.05;1.45;;;;;;;22.75;37.06;102025.00;4970394;28;20100;-74
2022/07/02 10:45:17;;;;;;;3.55;1.13;;;;;;;22.99;35.86;102027.16;4981138;28;20058;-73
2022/07/02 10:48:03;;;;;;;9.48;1.20;;;;;;;22.84;37.19;102020.97;4975323;28;20088;-72
2022/07/02 10:50:35;;;;;;;3.08;0.90;;;;;;;22.33;37.12;102016.00;4971723;28;20485;-74
2022/07/02 10:53:11;;;;;;;4.80;1.17;;;;;;;21.95;37.81;102030.25;4970324;28;20027;-73
2022/07/02 10:55:38;;;;;;;12.55;1.60;;;;;;;22.05;37.88;102023.53;4983537;28;20022;-72
2022/07/02 10:58:05;;;;;;;4.60;1.17;;;;;;;22.36;37.42;102026.63;4969286;28;20056;-71
2022/07/02 11:00:39;;;;;;;5.00;1.60;;;;;;;23.18;36.03;102010.81;4986588;28;20034;-72
2022/07/02 11:03:33;;;;;;;2.65;1.23;;;;;;;23.08;35.90;102018.66;4984350;28;20023;-71
2022/07/02 11:06:03;;;;;;;4.97;1.23;;;;;;;23.16;35.92;102010.19;4967473;28;20113;-72
2022/07/02 11:08:46;;;;;;;4.18;1.30;;;;;;;22.87;36.68;102017.81;4972000;28;20026;-74
2022/07/02 11:11:17;;;;;;;6.43;1.15;;;;;;;22.61;37.98;102006.72;4984712;28;20038;-74
2022/07/02 11:13:58;;;;;;;4.07;1.40;;;;;;;22.58;36.26;102018.19;4976955;28;20133;-73
2022/07/02 11:16:27;;;;;;;5.63;1.15;;;;;;;22.76;37.10;102004.63;4994585;28;20030;-74
2022/07/02 11:18:55;;;;;;;5.47;1.50;;;;;;;23.16;35.62;102004.66;4998181;28;20413;-73
2022/07/02 11:21:22;;;;;;;4.57;1.25;;;;;;;23.04;36.10;102006.34;4991670;28;20117;-71
2022/07/02 11:23:49;;;;;;;4.43;1.17;;;;;;;22.91;36.90;102001.69;4974246;28;20030;-72